Time;durP1;ratioP1;P1;durP2;ratioP2;P2;SDS_P1;SDS_P2;PMS_P1;PMS_P2;Temp;Humidity;BMP_temperature;BMP_pressure;BME280_temperature;BME280_humidity;BME280_pressure;Samples;Min_cycle;Max_cycle;Signal;HPM_P1;HPM_P2
2022/11/30 00:00:59;;;;;;;63.07;32.90;;;5.30;99.90;;;;;;5076242;28;20392;-72
2022/11/30 00:03:25;;;;;;;70.10;33.07;;;5.30;99.90;;;;;;5075808;28;20413;-73
2022/11/30 00:05:51;;;;;;;69.87;33.63;;;5.30;99.90;;;;;;5075171;28;20416;-73
2022/11/30 00:08:17;;;;;;;69.37;35.23;;;5.30;99.90;;;;;;5074700;28;20941;-73
2022/11/30 00:10:43;;;;;;;55.10;32.63;;;5.30;99.90;;;;;;5075950;28;20397;-73
2022/11/30 00:13:09;;;;;;;66.67;32.50;;;5.30;99.90;;;;;;5076135;28;20203;-73
2022/11/30 00:15:36;;;;;;;65.70;33.30;;;5.30;99.90;;;;;;5074312;28;20173;-73
2022/11/30 00:18:02;;;;;;;66.40;32.10;;;5.40;99.90;;;;;;5076099;28;20401;-73
2022/11/30 00:20:28;;;;;;;63.80;32.37;;;5.30;99.90;;;;;;5075916;28;20404;-73
2022/11/30 00:22:56;;;;;;;62.93;32.83;;;5.30;99.90;;;;;;5074963;28;20905;-73
2022/11/30 00:25:23;;;;;;;65.27;33.67;;;5.30;99.90;;;;;;5074167;28;20840;-73
2022/11/30 00:27:48;;;;;;;78.60;33.60;;;5.40;99.90;;;;;;5075774;28;20427;-73
2022/11/30 00:30:14;;;;;;;68.63;32.53;;;5.50;99.90;;;;;;5075755;28;20396;-73
2022/11/30 00:32:40;;;;;;;66.67;33.53;;;5.50;99.90;;;;;;5075756;28;20221;-74
2022/11/30 00:35:06;;;;;;;65.13;33.97;;;5.40;99.90;;;;;;5075029;28;20984;-73
2022/11/30 00:37:34;;;;;;;65.23;33.00;;;5.40;99.90;;;;;;5075587;28;20186;-73
2022/11/30 00:39:59;;;;;;;71.60;31.77;;;5.40;99.90;;;;;;5073443;28;20940;-73
2022/11/30 00:42:25;;;;;;;64.03;32.77;;;5.30;99.90;;;;;;5075555;28;20471;-72
2022/11/30 00:44:51;;;;;;;59.50;32.90;;;5.40;99.90;;;;;;5074792;28;20228;-73
2022/11/30 00:47:17;;;;;;;79.50;35.10;;;5.30;99.90;;;;;;5075627;28;20186;-73
2022/11/30 00:49:42;;;;;;;66.27;32.80;;;5.30;99.90;;;;;;5075353;28;20670;-73
2022/11/30 00:52:08;;;;;;;75.27;32.93;;;5.40;99.90;;;;;;5074358;28;20194;-74
2022/11/30 00:54:34;;;;;;;70.43;34.00;;;5.40;99.90;;;;;;5074688;28;20166;-72
2022/11/30 00:56:59;;;;;;;64.27;33.87;;;5.40;99.90;;;;;;5074736;28;20544;-73
2022/11/30 00:59:25;;;;;;;67.67;34.93;;;5.40;99.90;;;;;;5074683;28;20583;-72
2022/11/30 01:01:53;;;;;;;62.57;34.67;;;5.50;99.90;;;;;;5075210;28;20539;-72
2022/11/30 01:04:19;;;;;;;58.30;33.27;;;5.50;99.90;;;;;;5074514;28;20174;-72
2022/11/30 01:06:45;;;;;;;66.70;31.33;;;5.50;99.90;;;;;;5075001;28;20416;-74
2022/11/30 01:09:10;;;;;;;69.47;33.37;;;5.50;99.90;;;;;;5074968;28;20924;-73
2022/11/30 01:11:36;;;;;;;59.20;34.13;;;5.40;99.90;;;;;;5074873;28;20254;-73
2022/11/30 01:14:02;;;;;;;75.50;32.93;;;5.30;99.90;;;;;;5074105;28;20699;-73
2022/11/30 01:16:30;;;;;;;71.70;32.33;;;5.30;99.90;;;;;;5072941;28;20281;-73
2022/11/30 01:18:56;;;;;;;67.53;32.17;;;5.20;99.90;;;;;;5074853;28;20166;-73
2022/11/30 01:21:24;;;;;;;59.07;32.70;;;5.20;99.90;;;;;;5074741;28;20405;-73
2022/11/30 01:23:51;;;;;;;74.07;36.27;;;5.20;99.90;;;;;;5074183;28;20726;-73
2022/11/30 01:26:17;;;;;;;63.13;31.70;;;5.20;99.90;;;;;;5074608;28;20452;-73
2022/11/30 01:28:44;;;;;;;60.17;31.83;;;5.20;99.90;;;;;;5074831;28;20760;-73
2022/11/30 01:31:12;;;;;;;69.20;34.67;;;5.20;99.90;;;;;;5074563;28;20448;-74
2022/11/30 01:33:39;;;;;;;61.47;31.70;;;5.20;99.90;;;;;;5073037;28;20397;-73
2022/11/30 01:36:06;;;;;;;68.23;33.80;;;5.20;99.90;;;;;;5074275;28;20417;-72
2022/11/30 01:38:47;;;;;;;60.93;32.13;;;5.20;99.90;;;;;;5073214;28;20408;-73
2022/11/30 01:41:25;;;;;;;65.73;32.20;;;5.20;99.90;;;;;;5074405;28;20495;-73
2022/11/30 01:43:54;;;;;;;67.27;33.73;;;5.10;99.90;;;;;;5073756;28;20408;-73
2022/11/30 01:46:35;;;;;;;56.53;31.70;;;5.10;99.90;;;;;;5074194;28;20420;-73
2022/11/30 01:49:10;;;;;;;60.13;32.50;;;5.20;99.90;;;;;;5074097;28;20431;-73
2022/11/30 01:51:43;;;;;;;61.87;33.20;;;5.20;99.90;;;;;;5073016;28;20444;-73
2022/11/30 01:54:13;;;;;;;64.20;34.37;;;5.20;99.90;;;;;;5073419;28;20454;-73
2022/11/30 01:56:47;;;;;;;71.20;33.63;;;5.10;99.90;;;;;;5074071;28;20436;-73
2022/11/30 01:59:14;;;;;;;59.57;29.70;;;5.20;99.90;;;;;;5074020;28;20892;-74
2022/11/30 02:01:40;;;;;;;73.60;34.07;;;5.20;99.90;;;;;;5073896;28;20408;-73
2022/11/30 02:04:17;;;;;;;62.70;34.43;;;5.30;99.90;;;;;;5073161;28;20405;-73
2022/11/30 02:06:43;;;;;;;70.50;33.33;;;5.30;99.90;;;;;;5073582;28;20754;-74
2022/11/30 02:09:10;;;;;;;60.50;33.63;;;5.30;99.90;;;;;;5073198;28;20409;-72
2022/11/30 02:11:35;;;;;;;65.10;32.63;;;5.30;99.90;;;;;;5072436;28;20444;-72
2022/11/30 02:14:07;;;;;;;67.57;32.30;;;5.40;99.90;;;;;;5073178;28;20422;-73
2022/11/30 02:17:06;;;;;;;76.23;35.00;;;5.40;99.90;;;;;;5073671;28;20193;-73
2022/11/30 02:19:52;;;;;;;61.30;31.33;;;5.40;99.90;;;;;;5073511;28;20916;-73
2022/11/30 02:23:02;;;;;;;61.37;31.87;;;5.50;99.90;;;;;;5073454;28;20960;-71
2022/11/30 02:25:50;;;;;;;60.47;30.77;;;5.50;99.90;;;;;;5052070;28;20444;-73
2022/11/30 02:28:37;;;;;;;66.07;32.47;;;5.60;99.90;;;;;;5072441;28;20409;-73
2022/11/30 02:31:07;;;;;;;56.57;31.00;;;5.50;99.90;;;;;;5073348;28;20784;-73
2022/11/30 02:33:34;;;;;;;69.80;31.57;;;5.50;99.90;;;;;;5073123;28;20389;-73
2022/11/30 02:36:02;;;;;;;63.27;31.67;;;5.40;99.90;;;;;;5073047;28;20420;-73
2022/11/30 02:38:28;;;;;;;62.27;30.63;;;5.50;99.90;;;;;;5073364;28;20393;-73
2022/11/30 02:40:54;;;;;;;54.23;31.27;;;5.50;99.90;;;;;;5073253;28;20431;-73
2022/11/30 02:43:23;;;;;;;69.13;32.97;;;5.50;99.90;;;;;;5073216;28;20429;-73
2022/11/30 02:46:05;;;;;;;60.47;33.07;;;5.50;99.90;;;;;;5071897;28;20455;-72
2022/11/30 02:48:49;;;;;;;63.20;30.40;;;5.50;99.90;;;;;;5073026;28;20753;-73
2022/11/30 02:51:21;;;;;;;68.10;34.97;;;5.50;99.90;;;;;;5073117;28;21026;-73
2022/11/30 02:53:47;;;;;;;75.40;31.97;;;5.40;99.90;;;;;;5072486;28;20905;-73
2022/11/30 02:56:13;;;;;;;66.37;32.23;;;5.30;99.90;;;;;;5072978;28;20420;-72
2022/11/30 02:58:39;;;;;;;67.33;33.30;;;5.30;99.90;;;;;;5073202;28;20388;-72
2022/11/30 03:01:05;;;;;;;68.00;34.00;;;5.30;99.90;;;;;;5073055;28;20451;-72
2022/11/30 03:03:31;;;;;;;69.07;32.47;;;5.30;99.90;;;;;;5070592;28;20777;-73
2022/11/30 03:05:57;;;;;;;66.43;33.90;;;5.30;99.90;;;;;;5072419;28;20435;-73
2022/11/30 03:08:25;;;;;;;71.13;33.50;;;5.30;99.90;;;;;;5072957;28;20555;-72
2022/11/30 03:10:51;;;;;;;63.33;31.37;;;5.40;99.90;;;;;;5072901;28;20178;-72
2022/11/30 03:13:17;;;;;;;67.87;33.40;;;5.50;99.90;;;;;;5071694;28;20918;-72
2022/11/30 03:15:42;;;;;;;61.33;33.80;;;5.50;99.90;;;;;;5070309;28;20166;-71
2022/11/30 03:18:08;;;;;;;61.30;30.97;;;5.30;99.90;;;;;;5072848;28;20208;-72
2022/11/30 03:20:34;;;;;;;71.63;36.57;;;5.30;99.90;;;;;;5073036;28;20192;-72
2022/11/30 03:23:02;;;;;;;67.90;33.27;;;5.30;99.90;;;;;;5071852;28;20181;-72
2022/11/30 03:25:28;;;;;;;66.63;33.73;;;5.40;99.90;;;;;;5072174;28;20162;-74
2022/11/30 03:27:54;;;;;;;68.03;32.83;;;5.40;99.90;;;;;;5072727;28;20420;-73
2022/11/30 03:30:20;;;;;;;76.60;34.70;;;5.20;99.90;;;;;;5072694;28;20420;-73
2022/11/30 03:32:46;;;;;;;68.47;33.17;;;5.30;99.90;;;;;;5072754;28;20444;-72
2022/11/30 03:35:11;;;;;;;68.40;32.63;;;5.30;99.90;;;;;;5072085;28;20651;-72
2022/11/30 03:37:37;;;;;;;66.40;34.37;;;5.30;99.90;;;;;;5072663;28;20197;-73
2022/11/30 03:40:03;;;;;;;68.67;36.13;;;5.30;99.90;;;;;;5072676;28;20198;-72
2022/11/30 03:42:29;;;;;;;78.47;37.30;;;5.30;99.90;;;;;;5071900;28;20170;-73
2022/11/30 03:44:55;;;;;;;76.33;34.53;;;5.30;99.90;;;;;;5070747;28;20928;-73
2022/11/30 03:47:20;;;;;;;75.57;37.10;;;5.30;99.90;;;;;;5072676;28;20194;-73
2022/11/30 03:49:46;;;;;;;72.80;35.70;;;5.30;99.90;;;;;;5072592;28;20662;-73
2022/11/30 03:52:12;;;;;;;66.87;33.23;;;5.40;99.90;;;;;;5072400;28;20271;-73
2022/11/30 03:54:37;;;;;;;73.87;35.47;;;5.40;99.90;;;;;;5072036;28;20216;-73
2022/11/30 03:57:03;;;;;;;66.47;34.03;;;5.40;99.90;;;;;;5072420;28;20235;-73
2022/11/30 03:59:29;;;;;;;65.50;33.80;;;5.50;99.90;;;;;;5072535;28;20170;-73
2022/11/30 04:01:55;;;;;;;76.10;36.97;;;5.50;99.90;;;;;;5071698;28;20167;-72
2022/11/30 04:04:20;;;;;;;76.43;35.33;;;5.40;99.90;;;;;;5071700;28;20198;-73
2022/11/30 04:06:46;;;;;;;78.10;32.60;;;5.50;99.90;;;;;;5072356;28;20590;-73
2022/11/30 04:09:12;;;;;;;77.63;34.53;;;5.60;99.90;;;;;;5071551;28;20669;-73
2022/11/30 04:11:37;;;;;;;72.80;34.87;;;5.60;99.90;;;;;;5072320;28;20194;-72
2022/11/30 04:14:03;;;;;;;72.97;32.53;;;5.70;99.90;;;;;;5071856;28;20665;-72
2022/11/30 04:16:29;;;;;;;75.63;35.90;;;5.70;99.90;;;;;;5072257;28;20243;-74
2022/11/30 04:18:55;;;;;;;72.17;33.07;;;5.70;99.90;;;;;;5072456;28;20173;-73
2022/11/30 04:21:20;;;;;;;68.50;33.20;;;5.70;99.90;;;;;;5071603;28;20174;-73
2022/11/30 04:23:46;;;;;;;72.03;35.90;;;5.80;99.90;;;;;;5071650;28;20639;-73
2022/11/30 04:26:13;;;;;;;66.97;33.67;;;5.80;99.90;;;;;;5072361;28;20678;-73
2022/11/30 04:28:40;;;;;;;63.43;33.90;;;5.80;99.90;;;;;;5075826;28;20201;-73
2022/11/30 04:31:06;;;;;;;66.70;33.40;;;5.70;99.90;;;;;;5074526;28;20440;-72
2022/11/30 04:33:31;;;;;;;75.87;31.70;;;5.60;99.90;;;;;;5075432;28;20896;-72
2022/11/30 04:36:00;;;;;;;78.20;33.50;;;5.60;99.90;;;;;;5075365;28;20507;-73
2022/11/30 04:38:26;;;;;;;74.73;34.27;;;5.70;99.90;;;;;;5074874;28;20165;-71
2022/11/30 04:40:53;;;;;;;65.47;32.83;;;5.70;99.90;;;;;;5075367;28;20405;-72
2022/11/30 04:43:19;;;;;;;59.83;31.30;;;5.70;99.90;;;;;;5074222;28;20400;-74
2022/11/30 04:45:46;;;;;;;72.00;34.60;;;5.60;99.90;;;;;;5074900;28;20901;-73
2022/11/30 04:48:12;;;;;;;67.20;32.60;;;5.60;99.90;;;;;;5075401;28;20393;-73
2022/11/30 04:50:38;;;;;;;73.27;33.30;;;5.60;99.90;;;;;;5075459;28;20405;-72
2022/11/30 04:53:04;;;;;;;70.37;34.03;;;5.70;99.90;;;;;;5075267;28;20975;-73
2022/11/30 04:55:30;;;;;;;69.33;33.67;;;5.70;99.90;;;;;;5073305;28;20415;-73
2022/11/30 04:57:56;;;;;;;69.93;34.57;;;5.70;99.90;;;;;;5074704;28;20404;-72
2022/11/30 05:00:22;;;;;;;74.27;34.13;;;5.60;99.90;;;;;;5075216;28;20727;-73
2022/11/30 05:02:48;;;;;;;84.40;35.53;;;5.60;99.90;;;;;;5075116;28;20488;-73
2022/11/30 05:05:15;;;;;;;68.73;33.17;;;5.70;99.90;;;;;;5074552;28;20833;-73
2022/11/30 05:07:41;;;;;;;64.50;32.50;;;5.60;99.90;;;;;;5075045;28;20194;-72
2022/11/30 05:10:08;;;;;;;70.60;35.20;;;5.60;99.90;;;;;;5075048;28;20458;-73
2022/11/30 05:12:34;;;;;;;72.27;33.67;;;5.70;99.90;;;;;;5075034;28;20281;-72
2022/11/30 05:14:59;;;;;;;66.50;32.37;;;5.70;99.90;;;;;;5073009;28;20511;-73
2022/11/30 05:17:25;;;;;;;83.17;33.87;;;5.80;99.90;;;;;;5073947;28;20420;-73
2022/11/30 05:19:51;;;;;;;65.47;34.30;;;5.80;99.90;;;;;;5075193;28;20217;-72
2022/11/30 05:22:17;;;;;;;65.60;33.03;;;5.80;99.90;;;;;;5074832;28;20215;-73
2022/11/30 05:24:42;;;;;;;67.70;34.83;;;5.90;99.90;;;;;;5074144;28;20208;-73
2022/11/30 05:27:08;;;;;;;77.93;34.07;;;5.90;99.90;;;;;;5073249;28;20655;-74
2022/11/30 05:29:35;;;;;;;69.13;33.63;;;5.80;99.90;;;;;;5074702;28;20530;-74
2022/11/30 05:32:01;;;;;;;83.43;33.23;;;5.90;99.90;;;;;;5073386;28;20710;-73
2022/11/30 05:34:27;;;;;;;64.83;35.27;;;5.90;99.90;;;;;;5071725;28;20412;-73
2022/11/30 05:36:53;;;;;;;70.53;34.00;;;5.80;99.90;;;;;;5074247;28;20526;-74
2022/11/30 05:39:18;;;;;;;81.20;37.20;;;5.80;99.90;;;;;;5073164;28;20416;-73
2022/11/30 05:41:44;;;;;;;65.80;32.37;;;5.80;99.90;;;;;;5074409;28;20253;-72
2022/11/30 05:44:10;;;;;;;78.87;35.87;;;5.70;99.90;;;;;;5073659;28;20182;-74
2022/11/30 05:46:36;;;;;;;66.97;33.90;;;5.60;99.90;;;;;;5074351;28;20193;-72
2022/11/30 05:49:02;;;;;;;68.57;33.67;;;5.60;99.90;;;;;;5074160;28;20781;-73
2022/11/30 05:51:28;;;;;;;72.27;36.60;;;5.70;99.90;;;;;;5073154;28;20444;-73
2022/11/30 05:53:54;;;;;;;73.43;33.90;;;5.70;99.90;;;;;;5073587;28;20405;-72
2022/11/30 05:56:20;;;;;;;81.43;36.20;;;5.70;99.90;;;;;;5072790;28;20595;-73
2022/11/30 05:58:46;;;;;;;70.43;32.00;;;5.60;99.90;;;;;;5073999;28;20515;-74
2022/11/30 06:01:21;;;;;;;86.00;35.70;;;5.50;99.90;;;;;;5072690;28;20770;-74
2022/11/30 06:03:47;;;;;;;65.57;32.10;;;5.50;99.90;;;;;;5073310;28;20404;-73
2022/11/30 06:06:13;;;;;;;67.17;34.73;;;5.40;99.90;;;;;;5073891;28;20431;-73
2022/11/30 06:08:39;;;;;;;61.47;32.97;;;5.40;99.90;;;;;;5073398;28;20407;-74
2022/11/30 06:11:04;;;;;;;65.90;32.40;;;5.50;99.90;;;;;;5073753;28;20534;-72
2022/11/30 06:13:31;;;;;;;72.40;33.57;;;5.50;99.90;;;;;;5072171;28;20416;-73
2022/11/30 06:16:04;;;;;;;69.27;34.70;;;5.60;99.90;;;;;;5073332;28;20269;-71
2022/11/30 06:18:30;;;;;;;70.97;35.27;;;5.60;99.90;;;;;;5073765;28;20443;-72
2022/11/30 06:21:08;;;;;;;80.00;35.07;;;5.70;99.90;;;;;;5073593;28;20397;-71
2022/11/30 06:23:34;;;;;;;74.30;34.40;;;5.60;99.90;;;;;;5073294;28;20407;-72
2022/11/30 06:26:05;;;;;;;68.40;34.73;;;5.50;99.90;;;;;;5071658;28;20432;-73
2022/11/30 06:28:31;;;;;;;78.70;35.40;;;5.50;99.90;;;;;;5071895;28;20944;-72
2022/11/30 06:31:00;;;;;;;82.90;35.00;;;5.40;99.90;;;;;;5072010;28;20408;-72
2022/11/30 06:33:26;;;;;;;68.27;34.00;;;5.50;99.90;;;;;;5073213;28;20487;-74
2022/11/30 06:35:51;;;;;;;76.13;34.97;;;5.50;99.90;;;;;;5072924;28;20444;-72
2022/11/30 06:38:18;;;;;;;75.30;36.07;;;5.60;99.90;;;;;;5073346;28;20931;-72
2022/11/30 06:40:44;;;;;;;73.40;37.23;;;5.60;99.90;;;;;;5073413;28;20196;-73
2022/11/30 06:43:10;;;;;;;81.13;35.67;;;5.50;99.90;;;;;;5073369;28;20432;-72
2022/11/30 06:45:35;;;;;;;76.67;38.40;;;5.50;99.90;;;;;;5070824;28;20416;-73
2022/11/30 06:48:01;;;;;;;82.87;34.00;;;5.50;99.90;;;;;;5072497;28;20409;-72
2022/11/30 06:50:27;;;;;;;75.90;34.30;;;5.50;99.90;;;;;;5072487;28;20550;-72
2022/11/30 06:52:54;;;;;;;86.40;35.40;;;5.60;99.90;;;;;;5073077;28;20259;-73
2022/11/30 06:55:20;;;;;;;88.57;36.90;;;5.60;99.90;;;;;;5071376;28;20809;-73
2022/11/30 06:57:46;;;;;;;75.47;35.40;;;5.50;99.90;;;;;;5071924;28;20464;-73
2022/11/30 07:00:13;;;;;;;77.80;37.20;;;5.50;99.90;;;;;;5071790;28;20257;-72
2022/11/30 07:02:38;;;;;;;75.07;35.73;;;5.60;99.90;;;;;;5072874;28;20393;-73
2022/11/30 07:05:05;;;;;;;74.90;36.60;;;5.70;99.90;;;;;;5072005;28;20429;-72
2022/11/30 07:07:31;;;;;;;82.73;35.73;;;5.60;99.90;;;;;;5072928;28;20259;-73
2022/11/30 07:09:56;;;;;;;76.57;36.27;;;5.50;99.90;;;;;;5072954;28;20885;-73
2022/11/30 07:12:23;;;;;;;77.00;35.07;;;5.40;99.90;;;;;;5071678;28;20209;-72
2022/11/30 07:14:54;;;;;;;76.47;35.60;;;5.40;99.90;;;;;;5072294;28;20244;-73
2022/11/30 07:17:20;;;;;;;82.23;38.90;;;5.30;99.90;;;;;;5072952;28;20416;-73
2022/11/30 07:19:46;;;;;;;84.10;35.10;;;5.30;99.90;;;;;;5071614;28;20414;-74
2022/11/30 07:22:12;;;;;;;82.60;37.30;;;5.40;99.90;;;;;;5072782;28;20456;-72
2022/11/30 07:27:22;;;;;;;80.40;34.20;;;5.40;99.90;;;;;;5073135;28;20428;-73
2022/11/30 07:29:50;;;;;;;84.87;36.80;;;5.40;99.90;;;;;;5072996;28;20761;-72
2022/11/30 07:32:16;;;;;;;77.60;35.50;;;5.50;99.90;;;;;;5072685;28;20193;-72
2022/11/30 07:34:42;;;;;;;75.53;35.30;;;5.50;99.90;;;;;;5070830;28;20419;-72
2022/11/30 07:37:08;;;;;;;68.77;34.57;;;5.60;99.90;;;;;;5072678;28;20901;-72
2022/11/30 07:39:34;;;;;;;74.83;34.40;;;5.70;99.90;;;;;;5072710;28;20508;-72
2022/11/30 07:42:00;;;;;;;70.67;33.90;;;5.70;99.90;;;;;;5071073;28;20178;-73
2022/11/30 07:44:26;;;;;;;70.40;33.87;;;5.70;99.90;;;;;;5071630;28;20405;-72
2022/11/30 07:46:52;;;;;;;71.77;33.20;;;5.70;99.90;;;;;;5071276;28;20428;-73
2022/11/30 07:49:18;;;;;;;79.93;33.40;;;5.70;99.90;;;;;;5071587;28;20827;-73
2022/11/30 07:51:44;;;;;;;74.80;35.20;;;5.80;99.90;;;;;;5072514;28;20194;-73
2022/11/30 07:54:10;;;;;;;84.90;32.87;;;5.70;99.90;;;;;;5071865;28;20162;-73
2022/11/30 07:56:35;;;;;;;67.13;34.23;;;5.70;99.90;;;;;;5072510;28;20412;-72
2022/11/30 07:59:02;;;;;;;76.13;33.10;;;5.70;99.90;;;;;;5072438;28;20738;-73
2022/11/30 08:01:31;;;;;;;76.83;34.60;;;5.80;99.90;;;;;;5073936;28;20158;-73
2022/11/30 08:03:57;;;;;;;72.03;35.07;;;5.80;99.90;;;;;;5075712;28;20412;-72
2022/11/30 08:06:28;;;;;;;75.47;33.70;;;5.70;99.90;;;;;;5076067;28;20459;-73
2022/11/30 08:08:57;;;;;;;81.93;36.27;;;5.60;99.90;;;;;;5076193;28;20401;-72
2022/11/30 08:11:26;;;;;;;68.97;33.30;;;5.70;99.90;;;;;;5076156;28;20452;-73
2022/11/30 08:13:52;;;;;;;92.63;38.40;;;5.70;99.90;;;;;;5075594;28;20393;-73
2022/11/30 08:16:28;;;;;;;80.30;35.03;;;5.70;99.90;;;;;;5074083;28;20421;-73
2022/11/30 08:18:55;;;;;;;69.47;34.20;;;5.80;99.90;;;;;;5075505;28;20400;-72
2022/11/30 08:21:22;;;;;;;71.87;34.93;;;5.70;99.90;;;;;;5076101;28;20419;-73
2022/11/30 08:23:50;;;;;;;73.67;33.27;;;5.70;99.90;;;;;;5075360;28;20901;-72
2022/11/30 08:26:21;;;;;;;86.07;37.60;;;5.60;99.90;;;;;;5075757;28;20420;-73
2022/11/30 08:28:49;;;;;;;96.00;39.07;;;5.70;99.90;;;;;;5075786;28;20746;-72
2022/11/30 08:31:17;;;;;;;88.10;38.03;;;5.70;99.90;;;;;;5075780;28;20526;-71
2022/11/30 08:33:44;;;;;;;82.93;37.50;;;5.70;99.90;;;;;;5074102;28;20405;-73
2022/11/30 08:36:17;;;;;;;78.63;36.47;;;5.70;99.90;;;;;;5075237;28;20443;-73
2022/11/30 08:38:44;;;;;;;91.43;38.97;;;5.60;99.90;;;;;;5074309;28;20411;-73
2022/11/30 08:41:13;;;;;;;80.20;38.70;;;5.60;99.90;;;;;;5075642;28;20880;-73
2022/11/30 08:43:39;;;;;;;88.87;41.97;;;5.60;99.90;;;;;;5073896;28;20409;-73
2022/11/30 08:46:07;;;;;;;87.13;37.07;;;5.70;99.90;;;;;;5075481;28;20417;-74
2022/11/30 08:48:34;;;;;;;89.90;38.00;;;5.80;99.90;;;;;;5075661;28;20462;-73
2022/11/30 08:51:05;;;;;;;78.57;39.17;;;5.80;99.90;;;;;;5074113;28;20416;-73
2022/11/30 08:53:31;;;;;;;71.97;34.33;;;5.80;99.90;;;;;;5073955;28;20405;-72
2022/11/30 08:56:03;;;;;;;70.93;33.97;;;5.80;99.90;;;;;;5072885;28;20428;-73
2022/11/30 08:58:32;;;;;;;87.47;37.43;;;5.90;99.90;;;;;;5075589;28;20408;-73
2022/11/30 09:01:11;;;;;;;91.27;38.20;;;5.90;99.90;;;;;;5073913;28;20462;-73
2022/11/30 09:03:38;;;;;;;79.70;36.70;;;5.90;99.90;;;;;;5074569;28;20408;-74
2022/11/30 09:06:11;;;;;;;81.27;36.77;;;5.90;99.90;;;;;;5075096;28;20424;-74
2022/11/30 09:08:38;;;;;;;67.00;32.70;;;5.90;99.90;;;;;;5075230;28;20400;-74
2022/11/30 09:11:13;;;;;;;80.10;36.63;;;6.00;99.90;;;;;;5073658;28;20913;-73
2022/11/30 09:13:40;;;;;;;84.90;37.70;;;6.00;99.90;;;;;;5073574;28;20405;-73
2022/11/30 09:16:06;;;;;;;85.13;38.20;;;6.00;99.90;;;;;;5073920;28;20470;-73
2022/11/30 09:18:33;;;;;;;83.30;37.23;;;5.80;99.90;;;;;;5075021;28;20397;-73
2022/11/30 09:21:00;;;;;;;86.60;37.60;;;5.70;99.90;;;;;;5073436;28;20408;-74
2022/11/30 09:23:26;;;;;;;84.07;36.57;;;5.70;99.90;;;;;;5074356;28;20916;-74
2022/11/30 09:25:57;;;;;;;80.07;33.93;;;5.80;99.90;;;;;;5074149;28;20420;-73
2022/11/30 09:28:23;;;;;;;87.27;38.30;;;5.80;99.90;;;;;;5074885;28;20435;-73
2022/11/30 09:30:49;;;;;;;78.03;35.70;;;5.90;99.90;;;;;;5074664;28;20400;-74
2022/11/30 09:33:15;;;;;;;71.17;35.97;;;5.90;99.90;;;;;;5072839;28;20536;-74
2022/11/30 09:35:41;;;;;;;77.97;35.60;;;6.00;99.90;;;;;;5072276;28;20247;-73
2022/11/30 09:38:06;;;;;;;69.90;35.27;;;6.00;99.90;;;;;;5073472;28;20412;-73
2022/11/30 09:40:35;;;;;;;79.90;35.23;;;6.00;99.90;;;;;;5073550;28;20174;-72
2022/11/30 09:43:44;;;;;;;88.00;39.87;;;6.00;99.90;;;;;;5073177;28;20166;-74
2022/11/30 09:46:10;;;;;;;77.90;37.67;;;6.00;99.90;;;;;;5074166;28;20427;-74
2022/11/30 09:48:36;;;;;;;86.77;36.77;;;6.00;99.90;;;;;;5073101;28;20435;-74
2022/11/30 09:51:10;;;;;;;82.40;36.33;;;6.00;99.90;;;;;;5074149;28;20974;-73
2022/11/30 09:53:43;;;;;;;79.50;35.90;;;5.90;99.90;;;;;;5072994;28;20523;-75
2022/11/30 09:56:32;;;;;;;76.27;36.30;;;5.80;99.90;;;;;;5074100;28;20480;-74
2022/11/30 09:59:28;;;;;;;81.43;34.20;;;5.70;99.90;;;;;;5074080;28;20450;-74
2022/11/30 10:01:56;;;;;;;82.13;37.33;;;5.70;99.90;;;;;;5074048;28;20503;-74
2022/11/30 10:04:27;;;;;;;85.40;35.60;;;5.70;99.90;;;;;;5072400;28;20421;-73
2022/11/30 10:07:11;;;;;;;100.30;42.57;;;5.90;99.90;;;;;;5072636;28;20447;-73
2022/11/30 10:09:50;;;;;;;77.97;36.80;;;5.90;99.90;;;;;;5074144;28;20415;-73
2022/11/30 10:12:41;;;;;;;92.40;38.10;;;5.80;99.90;;;;;;5071916;28;20506;-73
2022/11/30 10:15:40;;;;;;;96.40;39.70;;;5.90;99.90;;;;;;5073111;28;20473;-74
2022/11/30 10:18:43;;;;;;;87.00;38.23;;;5.90;99.90;;;;;;5073719;28;20401;-73
2022/11/30 10:21:35;;;;;;;99.47;38.30;;;5.90;99.90;;;;;;5072415;28;20412;-74
2022/11/30 10:24:13;;;;;;;88.60;39.43;;;6.00;99.90;;;;;;5071620;28;20417;-73
2022/11/30 10:26:53;;;;;;;93.83;37.00;;;6.10;99.90;;;;;;5073541;28;20468;-73
2022/11/30 10:29:18;;;;;;;85.30;40.13;;;6.20;99.90;;;;;;5072271;28;20542;-74
2022/11/30 10:31:56;;;;;;;88.30;40.20;;;6.10;99.90;;;;;;5072813;28;20910;-73
2022/11/30 10:34:26;;;;;;;83.03;37.37;;;6.00;99.90;;;;;;5071613;28;20166;-73
2022/11/30 10:37:27;;;;;;;87.93;38.03;;;6.00;99.90;;;;;;5073214;28;20435;-74
2022/11/30 10:40:01;;;;;;;101.50;41.30;;;6.10;99.90;;;;;;5018058;28;20418;-74
2022/11/30 10:43:06;;;;;;;88.90;39.00;;;6.00;99.90;;;;;;5073382;28;20762;-72
2022/11/30 10:45:32;;;;;;;94.93;41.07;;;5.90;99.90;;;;;;5072528;28;20466;-73
2022/11/30 10:48:15;;;;;;;91.20;38.80;;;5.80;99.90;;;;;;5072965;28;20401;-74
2022/11/30 10:50:41;;;;;;;82.87;38.20;;;5.90;99.90;;;;;;5073198;28;20420;-73
2022/11/30 10:53:11;;;;;;;86.13;38.80;;;5.90;99.90;;;;;;5071954;28;20456;-74
2022/11/30 10:55:49;;;;;;;86.87;40.17;;;5.90;99.90;;;;;;5072361;28;20400;-73
2022/11/30 10:58:27;;;;;;;78.50;37.60;;;5.90;99.90;;;;;;5071902;28;20432;-73
2022/11/30 11:01:33;;;;;;;99.53;35.70;;;6.00;99.90;;;;;;5071789;28;20761;-73
2022/11/30 11:04:17;;;;;;;87.27;37.77;;;6.00;99.90;;;;;;5072351;28;20976;-74
2022/11/30 11:06:48;;;;;;;87.03;39.37;;;6.00;99.90;;;;;;5072724;28;20432;-75
2022/11/30 11:09:28;;;;;;;89.03;39.40;;;6.10;99.90;;;;;;5073094;28;20400;-73
2022/11/30 11:12:01;;;;;;;89.53;40.37;;;5.90;99.90;;;;;;5071677;28;20463;-73
2022/11/30 11:14:28;;;;;;;84.77;38.10;;;5.90;99.90;;;;;;5072397;28;20540;-71
2022/11/30 11:17:00;;;;;;;81.20;36.80;;;5.70;99.90;;;;;;5072912;28;20513;-72
2022/11/30 11:19:31;;;;;;;113.93;43.77;;;5.80;99.90;;;;;;5071626;28;20909;-72
2022/11/30 11:21:57;;;;;;;83.30;36.90;;;5.80;99.90;;;;;;5071982;28;20446;-71
2022/11/30 11:24:26;;;;;;;78.63;37.07;;;5.70;99.90;;;;;;5071027;28;20430;-71
2022/11/30 11:26:55;;;;;;;89.47;37.83;;;5.70;99.90;;;;;;5071770;28;20840;-72
2022/11/30 11:29:31;;;;;;;73.37;34.13;;;5.70;99.90;;;;;;5073019;28;20420;-71
2022/11/30 11:32:08;;;;;;;80.37;38.67;;;5.70;99.90;;;;;;5072640;28;20474;-71
2022/11/30 11:34:35;;;;;;;85.33;38.17;;;5.60;99.90;;;;;;5072119;28;20404;-71
2022/11/30 11:37:32;;;;;;;84.47;36.80;;;5.60;99.90;;;;;;5075942;28;20481;-72
2022/11/30 11:40:01;;;;;;;75.43;35.00;;;5.60;99.90;;;;;;5076068;28;20426;-72
2022/11/30 11:42:37;;;;;;;76.50;36.40;;;5.70;99.90;;;;;;5076652;28;20511;-71
2022/11/30 11:45:04;;;;;;;76.30;38.20;;;5.70;99.90;;;;;;5076074;28;20475;-71
2022/11/30 11:47:43;;;;;;;73.47;35.53;;;5.70;99.90;;;;;;5075345;28;20801;-73
2022/11/30 11:50:12;;;;;;;73.13;36.47;;;5.70;99.90;;;;;;5076494;28;20943;-73
2022/11/30 11:52:38;;;;;;;63.83;33.87;;;5.80;99.90;;;;;;5076471;28;20538;-73
2022/11/30 11:55:30;;;;;;;73.80;35.80;;;5.80;99.90;;;;;;5074744;28;20573;-72
2022/11/30 11:58:00;;;;;;;65.63;34.07;;;5.70;99.90;;;;;;5072101;28;20420;-73
2022/11/30 12:00:26;;;;;;;74.53;35.40;;;5.80;99.90;;;;;;5075342;28;20404;-73
2022/11/30 12:03:32;;;;;;;72.17;35.87;;;5.80;99.90;;;;;;5075023;28;20473;-73
2022/11/30 12:06:03;;;;;;;64.20;33.30;;;5.80;99.90;;;;;;5074678;28;20217;-73
2022/11/30 12:08:37;;;;;;;84.20;36.40;;;5.90;99.90;;;;;;5075161;28;20416;-72
2022/11/30 12:11:06;;;;;;;74.60;35.67;;;6.00;99.90;;;;;;5076066;28;20494;-72
2022/11/30 12:13:40;;;;;;;77.70;35.50;;;6.00;99.90;;;;;;5075605;28;20396;-73
2022/11/30 12:16:15;;;;;;;75.63;37.53;;;6.10;99.90;;;;;;5075741;28;20419;-74
2022/11/30 12:18:44;;;;;;;68.90;35.67;;;6.20;99.90;;;;;;5076186;28;20400;-72
2022/11/30 12:21:23;;;;;;;66.33;34.30;;;6.30;99.90;;;;;;5075910;28;20401;-73
2022/11/30 12:24:19;;;;;;;69.20;37.27;;;6.40;99.90;;;;;;5075206;28;20802;-73
2022/11/30 12:27:31;;;;;;;63.50;32.47;;;6.40;99.90;;;;;;5064368;28;20436;-72
2022/11/30 12:30:18;;;;;;;68.70;33.83;;;6.40;99.90;;;;;;5074461;28;20928;-72
2022/11/30 12:33:02;;;;;;;72.17;34.83;;;6.50;99.90;;;;;;5075678;28;20452;-72
2022/11/30 12:35:46;;;;;;;80.53;38.87;;;6.40;99.90;;;;;;5074595;28;20770;-72
2022/11/30 12:38:21;;;;;;;66.10;33.07;;;6.10;99.90;;;;;;5074365;28;20416;-70
2022/11/30 12:41:23;;;;;;;62.80;32.07;;;6.00;99.90;;;;;;5075663;28;20453;-72
2022/11/30 12:44:15;;;;;;;78.27;37.03;;;6.10;99.90;;;;;;5074829;28;20760;-73
2022/11/30 12:47:26;;;;;;;71.07;33.77;;;6.30;99.90;;;;;;5074823;28;20436;-73
2022/11/30 12:50:21;;;;;;;73.67;36.00;;;6.30;99.90;;;;;;5075407;28;20420;-71
2022/11/30 12:53:11;;;;;;;66.50;34.00;;;6.20;99.90;;;;;;5074754;28;20463;-71
2022/11/30 12:56:06;;;;;;;68.83;32.97;;;6.20;99.90;;;;;;5074536;28;20487;-72